sensor_id;sensor_type;location;lat;lon;timestamp;temperature;humidity
32187;DHT22;18686;53.084;8.872;2023-07-09T00:01:26;19.40;99.90
32187;DHT22;18686;53.084;8.872;2023-07-09T00:03:55;19.30;99.90
32187;DHT22;18686;53.084;8.872;2023-07-09T00:06:24;19.20;99.90
32187;DHT22;18686;53.084;8.872;2023-07-09T00:08:52;19.20;99.90
32187;DHT22;18686;53.084;8.872;2023-07-09T00:11:20;19.20;99.90
32187;DHT22;18686;53.084;8.872;2023-07-09T00:13:48;19.10;99.90
32187;DHT22;18686;53.084;8.872;2023-07-09T00:16:19;19.10;99.90
32187;DHT22;18686;53.084;8.872;2023-07-09T00:18:49;19.10;99.90
32187;DHT22;18686;53.084;8.872;2023-07-09T00:21:20;19.00;99.90
32187;DHT22;18686;53.084;8.872;2023-07-09T00:23:50;19.00;99.90
32187;DHT22;18686;53.084;8.872;2023-07-09T00:26:19;18.90;99.90
32187;DHT22;18686;53.084;8.872;2023-07-09T00:28:50;18.90;99.90
32187;DHT22;18686;53.084;8.872;2023-07-09T00:31:18;18.80;99.90
32187;DHT22;18686;53.084;8.872;2023-07-09T00:33:48;18.80;99.90
32187;DHT22;18686;53.084;8.872;2023-07-09T00:36:26;18.80;99.90
32187;DHT22;18686;53.084;8.872;2023-07-09T00:38:55;18.80;99.90
32187;DHT22;18686;53.084;8.872;2023-07-09T00:41:33;18.70;99.90
32187;DHT22;18686;53.084;8.872;2023-07-09T00:44:26;18.70;99.90
32187;DHT22;18686;53.084;8.872;2023-07-09T00:47:21;18.60;99.90
32187;DHT22;18686;53.084;8.872;2023-07-09T00:50:01;18.50;99.90
32187;DHT22;18686;53.084;8.872;2023-07-09T00:52:35;18.60;99.90
32187;DHT22;18686;53.084;8.872;2023-07-09T00:55:08;18.50;99.90
32187;DHT22;18686;53.084;8.872;2023-07-09T00:57:39;18.50;99.90
32187;DHT22;18686;53.084;8.872;2023-07-09T01:00:11;18.40;99.90
32187;DHT22;18686;53.084;8.872;2023-07-09T01:02:45;18.40;99.90
32187;DHT22;18686;53.084;8.872;2023-07-09T01:05:16;18.40;99.90
32187;DHT22;18686;53.084;8.872;2023-07-09T01:07:49;18.40;99.90
32187;DHT22;18686;53.084;8.872;2023-07-09T01:10:18;18.30;99.90
32187;DHT22;18686;53.084;8.872;2023-07-09T01:12:48;18.30;99.90
32187;DHT22;18686;53.084;8.872;2023-07-09T01:15:17;18.30;99.90
32187;DHT22;18686;53.084;8.872;2023-07-09T01:17:45;18.30;99.90
32187;DHT22;18686;53.084;8.872;2023-07-09T01:20:16;18.20;99.90
32187;DHT22;18686;53.084;8.872;2023-07-09T01:22:50;18.20;99.90
32187;DHT22;18686;53.084;8.872;2023-07-09T01:25:22;18.20;99.90
32187;DHT22;18686;53.084;8.872;2023-07-09T01:27:50;18.10;99.90
32187;DHT22;18686;53.084;8.872;2023-07-09T01:30:22;18.10;99.90
32187;DHT22;18686;53.084;8.872;2023-07-09T01:32:50;18.10;99.90
32187;DHT22;18686;53.084;8.872;2023-07-09T01:35:20;18.00;99.90
32187;DHT22;18686;53.084;8.872;2023-07-09T01:37:50;18.00;99.90
32187;DHT22;18686;53.084;8.872;2023-07-09T01:40:21;18.00;99.90
32187;DHT22;18686;53.084;8.872;2023-07-09T01:43:00;18.00;99.90
32187;DHT22;18686;53.084;8.872;2023-07-09T01:45:34;18.00;99.90
32187;DHT22;18686;53.084;8.872;2023-07-09T01:48:03;18.00;99.90
32187;DHT22;18686;53.084;8.872;2023-07-09T01:50:31;17.90;99.90
32187;DHT22;18686;53.084;8.872;2023-07-09T01:53:01;18.00;99.90
32187;DHT22;18686;53.084;8.872;2023-07-09T01:55:31;18.00;99.90
32187;DHT22;18686;53.084;8.872;2023-07-09T01:57:59;17.90;99.90
32187;DHT22;18686;53.084;8.872;2023-07-09T02:00:32;18.00;99.90
32187;DHT22;18686;53.084;8.872;2023-07-09T02:03:03;18.00;99.90
32187;DHT22;18686;53.084;8.872;2023-07-09T02:05:32;18.10;99.90
32187;DHT22;18686;53.084;8.872;2023-07-09T02:08:03;18.10;99.90
32187;DHT22;18686;53.084;8.872;2023-07-09T02:10:31;18.20;99.90
32187;DHT22;18686;53.084;8.872;2023-07-09T02:13:00;18.20;99.90
32187;DHT22;18686;53.084;8.872;2023-07-09T02:15:28;18.30;99.90
32187;DHT22;18686;53.084;8.872;2023-07-09T02:17:57;18.30;99.90
32187;DHT22;18686;53.084;8.872;2023-07-09T02:20:28;18.30;99.90
32187;DHT22;18686;53.084;8.872;2023-07-09T02:22:57;18.30;99.90
32187;DHT22;18686;53.084;8.872;2023-07-09T02:25:26;18.40;99.90
32187;DHT22;18686;53.084;8.872;2023-07-09T02:27:54;18.40;99.90
32187;DHT22;18686;53.084;8.872;2023-07-09T02:30:22;18.40;99.90
32187;DHT22;18686;53.084;8.872;2023-07-09T02:32:51;18.30;99.90
32187;DHT22;18686;53.084;8.872;2023-07-09T02:35:21;18.30;99.90
32187;DHT22;18686;53.084;8.872;2023-07-09T02:37:49;18.30;99.90
32187;DHT22;18686;53.084;8.872;2023-07-09T02:40:17;18.30;99.90
32187;DHT22;18686;53.084;8.872;2023-07-09T02:42:47;18.30;99.90
32187;DHT22;18686;53.084;8.872;2023-07-09T02:45:17;18.30;99.90
32187;DHT22;18686;53.084;8.872;2023-07-09T02:47:46;18.30;99.90
32187;DHT22;18686;53.084;8.872;2023-07-09T02:50:15;18.20;99.90
32187;DHT22;18686;53.084;8.872;2023-07-09T02:52:43;18.20;99.90
32187;DHT22;18686;53.084;8.872;2023-07-09T02:55:11;18.20;99.90
32187;DHT22;18686;53.084;8.872;2023-07-09T02:57:40;18.20;99.90
32187;DHT22;18686;53.084;8.872;2023-07-09T03:00:11;18.20;99.90
32187;DHT22;18686;53.084;8.872;2023-07-09T03:02:39;18.20;99.90
32187;DHT22;18686;53.084;8.872;2023-07-09T03:05:08;18.20;99.90
32187;DHT22;18686;53.084;8.872;2023-07-09T03:07:37;18.20;99.90
32187;DHT22;18686;53.084;8.872;2023-07-09T03:10:06;18.20;99.90
32187;DHT22;18686;53.084;8.872;2023-07-09T03:12:34;18.10;99.90
32187;DHT22;18686;53.084;8.872;2023-07-09T03:15:03;18.10;99.90
32187;DHT22;18686;53.084;8.872;2023-07-09T03:17:33;18.10;99.90
32187;DHT22;18686;53.084;8.872;2023-07-09T03:20:01;18.10;99.90
32187;DHT22;18686;53.084;8.872;2023-07-09T03:22:29;18.10;99.90
32187;DHT22;18686;53.084;8.872;2023-07-09T03:24:57;18.10;99.90
32187;DHT22;18686;53.084;8.872;2023-07-09T03:27:26;18.10;99.90
32187;DHT22;18686;53.084;8.872;2023-07-09T03:29:54;18.10;99.90
32187;DHT22;18686;53.084;8.872;2023-07-09T03:32:22;18.10;99.90
32187;DHT22;18686;53.084;8.872;2023-07-09T03:34:52;18.10;99.90
32187;DHT22;18686;53.084;8.872;2023-07-09T03:37:20;18.10;99.90
32187;DHT22;18686;53.084;8.872;2023-07-09T03:39:48;18.10;99.90
32187;DHT22;18686;53.084;8.872;2023-07-09T03:42:16;18.10;99.90
32187;DHT22;18686;53.084;8.872;2023-07-09T03:44:45;18.10;99.90
32187;DHT22;18686;53.084;8.872;2023-07-09T03:47:13;18.10;99.90
32187;DHT22;18686;53.084;8.872;2023-07-09T03:49:41;18.10;99.90
32187;DHT22;18686;53.084;8.872;2023-07-09T03:52:11;18.10;99.90
32187;DHT22;18686;53.084;8.872;2023-07-09T03:54:39;18.10;99.90
32187;DHT22;18686;53.084;8.872;2023-07-09T03:57:07;18.10;99.90
32187;DHT22;18686;53.084;8.872;2023-07-09T03:59:35;18.10;99.90
32187;DHT22;18686;53.084;8.872;2023-07-09T04:02:06;18.10;99.90
32187;DHT22;18686;53.084;8.872;2023-07-09T04:04:35;18.00;99.90
32187;DHT22;18686;53.084;8.872;2023-07-09T04:07:03;18.00;99.90
32187;DHT22;18686;53.084;8.872;2023-07-09T04:09:33;18.00;99.90
32187;DHT22;18686;53.084;8.872;2023-07-09T04:12:01;18.10;99.90
32187;DHT22;18686;53.084;8.872;2023-07-09T04:14:30;18.00;99.90
32187;DHT22;18686;53.084;8.872;2023-07-09T04:16:58;18.00;99.90
32187;DHT22;18686;53.084;8.872;2023-07-09T04:19:26;18.00;99.90
32187;DHT22;18686;53.084;8.872;2023-07-09T04:21:55;18.00;99.90
32187;DHT22;18686;53.084;8.872;2023-07-09T04:24:23;18.10;99.90
32187;DHT22;18686;53.084;8.872;2023-07-09T04:26:53;18.10;99.90
32187;DHT22;18686;53.084;8.872;2023-07-09T04:29:23;18.00;99.90
32187;DHT22;18686;53.084;8.872;2023-07-09T04:31:51;18.10;99.90
32187;DHT22;18686;53.084;8.872;2023-07-09T04:34:20;18.10;99.90
32187;DHT22;18686;53.084;8.872;2023-07-09T04:36:48;18.10;99.90
32187;DHT22;18686;53.084;8.872;2023-07-09T04:39:16;18.10;99.90
32187;DHT22;18686;53.084;8.872;2023-07-09T04:41:44;18.20;99.90
32187;DHT22;18686;53.084;8.872;2023-07-09T04:44:14;18.20;99.90
32187;DHT22;18686;53.084;8.872;2023-07-09T04:46:42;18.20;99.90
32187;DHT22;18686;53.084;8.872;2023-07-09T04:49:10;18.30;99.90
32187;DHT22;18686;53.084;8.872;2023-07-09T04:51:39;18.30;99.90
32187;DHT22;18686;53.084;8.872;2023-07-09T04:54:07;18.30;99.90
32187;DHT22;18686;53.084;8.872;2023-07-09T04:56:35;18.40;99.90
32187;DHT22;18686;53.084;8.872;2023-07-09T04:59:04;18.50;99.90
32187;DHT22;18686;53.084;8.872;2023-07-09T05:01:34;18.50;99.90
32187;DHT22;18686;53.084;8.872;2023-07-09T05:04:02;18.60;99.90
32187;DHT22;18686;53.084;8.872;2023-07-09T05:06:30;18.70;99.90
32187;DHT22;18686;53.084;8.872;2023-07-09T05:08:59;18.80;99.90
32187;DHT22;18686;53.084;8.872;2023-07-09T05:11:27;18.90;99.90
32187;DHT22;18686;53.084;8.872;2023-07-09T05:13:55;18.90;99.90
32187;DHT22;18686;53.084;8.872;2023-07-09T05:16:23;19.00;99.90
32187;DHT22;18686;53.084;8.872;2023-07-09T05:18:53;19.10;99.90
32187;DHT22;18686;53.084;8.872;2023-07-09T05:21:21;19.20;99.90
32187;DHT22;18686;53.084;8.872;2023-07-09T05:23:49;19.30;99.90
32187;DHT22;18686;53.084;8.872;2023-07-09T05:26:17;19.40;99.90
32187;DHT22;18686;53.084;8.872;2023-07-09T05:28:46;19.40;99.90
32187;DHT22;18686;53.084;8.872;2023-07-09T05:31:14;19.60;99.90
32187;DHT22;18686;53.084;8.872;2023-07-09T05:33:42;19.70;99.90
32187;DHT22;18686;53.084;8.872;2023-07-09T05:36:12;19.80;99.90
32187;DHT22;18686;53.084;8.872;2023-07-09T05:38:42;19.90;99.90
32187;DHT22;18686;53.084;8.872;2023-07-09T05:41:10;20.10;99.90
32187;DHT22;18686;53.084;8.872;2023-07-09T05:43:39;20.20;99.90
32187;DHT22;18686;53.084;8.872;2023-07-09T05:46:07;20.40;99.90
32187;DHT22;18686;53.084;8.872;2023-07-09T05:48:35;20.50;99.90
32187;DHT22;18686;53.084;8.872;2023-07-09T05:51:03;20.60;99.90
32187;DHT22;18686;53.084;8.872;2023-07-09T05:53:33;20.80;99.60
32187;DHT22;18686;53.084;8.872;2023-07-09T05:56:01;21.00;99.00
32187;DHT22;18686;53.084;8.872;2023-07-09T05:58:30;21.20;98.60
32187;DHT22;18686;53.084;8.872;2023-07-09T06:00:58;21.40;98.40
32187;DHT22;18686;53.084;8.872;2023-07-09T06:03:28;21.50;98.00
32187;DHT22;18686;53.084;8.872;2023-07-09T06:05:57;21.70;97.60
32187;DHT22;18686;53.084;8.872;2023-07-09T06:08:27;21.80;97.00
32187;DHT22;18686;53.084;8.872;2023-07-09T06:10:59;22.00;96.40
32187;DHT22;18686;53.084;8.872;2023-07-09T06:13:48;22.10;96.10
32187;DHT22;18686;53.084;8.872;2023-07-09T06:16:17;22.30;95.50
32187;DHT22;18686;53.084;8.872;2023-07-09T06:18:45;22.40;94.50
32187;DHT22;18686;53.084;8.872;2023-07-09T06:21:13;22.60;94.10
32187;DHT22;18686;53.084;8.872;2023-07-09T06:23:41;22.70;92.20
32187;DHT22;18686;53.084;8.872;2023-07-09T06:26:11;22.90;90.50
32187;DHT22;18686;53.084;8.872;2023-07-09T06:28:39;23.00;86.30
32187;DHT22;18686;53.084;8.872;2023-07-09T06:31:07;23.10;84.10
32187;DHT22;18686;53.084;8.872;2023-07-09T06:33:35;23.20;84.80
32187;DHT22;18686;53.084;8.872;2023-07-09T06:36:04;23.40;83.60
32187;DHT22;18686;53.084;8.872;2023-07-09T06:38:33;23.50;79.80
32187;DHT22;18686;53.084;8.872;2023-07-09T06:41:01;23.60;78.80
32187;DHT22;18686;53.084;8.872;2023-07-09T06:43:31;23.80;77.60
32187;DHT22;18686;53.084;8.872;2023-07-09T06:46:00;24.00;76.60
32187;DHT22;18686;53.084;8.872;2023-07-09T06:48:29;24.20;73.80
32187;DHT22;18686;53.084;8.872;2023-07-09T06:50:58;24.30;73.10
32187;DHT22;18686;53.084;8.872;2023-07-09T06:53:28;24.50;72.20
32187;DHT22;18686;53.084;8.872;2023-07-09T06:55:57;24.60;70.90
32187;DHT22;18686;53.084;8.872;2023-07-09T06:58:30;24.70;69.20
32187;DHT22;18686;53.084;8.872;2023-07-09T07:01:03;24.80;69.10
32187;DHT22;18686;53.084;8.872;2023-07-09T07:03:32;25.00;68.90
32187;DHT22;18686;53.084;8.872;2023-07-09T07:06:01;25.10;67.80
32187;DHT22;18686;53.084;8.872;2023-07-09T07:08:30;25.30;68.20
32187;DHT22;18686;53.084;8.872;2023-07-09T07:11:02;25.40;66.60
32187;DHT22;18686;53.084;8.872;2023-07-09T07:13:32;25.50;64.80
32187;DHT22;18686;53.084;8.872;2023-07-09T07:16:04;25.80;63.40
32187;DHT22;18686;53.084;8.872;2023-07-09T07:18:33;26.00;62.10
32187;DHT22;18686;53.084;8.872;2023-07-09T07:21:01;26.20;61.30
32187;DHT22;18686;53.084;8.872;2023-07-09T07:23:30;26.50;61.10
32187;DHT22;18686;53.084;8.872;2023-07-09T07:25:58;26.70;59.60
32187;DHT22;18686;53.084;8.872;2023-07-09T07:28:27;27.00;59.10
32187;DHT22;18686;53.084;8.872;2023-07-09T07:30:59;27.20;58.50
32187;DHT22;18686;53.084;8.872;2023-07-09T07:33:29;27.40;57.20
32187;DHT22;18686;53.084;8.872;2023-07-09T07:35:57;27.60;56.90
32187;DHT22;18686;53.084;8.872;2023-07-09T07:38:45;27.80;55.80
32187;DHT22;18686;53.084;8.872;2023-07-09T07:41:14;28.10;55.00
32187;DHT22;18686;53.084;8.872;2023-07-09T07:43:42;28.20;55.20
32187;DHT22;18686;53.084;8.872;2023-07-09T07:46:10;28.40;54.50
32187;DHT22;18686;53.084;8.872;2023-07-09T07:48:40;28.60;52.80
32187;DHT22;18686;53.084;8.872;2023-07-09T07:51:08;28.70;52.90
32187;DHT22;18686;53.084;8.872;2023-07-09T07:53:36;28.80;51.70
32187;DHT22;18686;53.084;8.872;2023-07-09T07:56:05;29.00;51.50
32187;DHT22;18686;53.084;8.872;2023-07-09T07:58:33;29.20;50.90
32187;DHT22;18686;53.084;8.872;2023-07-09T08:01:01;29.50;51.00
32187;DHT22;18686;53.084;8.872;2023-07-09T08:03:30;29.60;49.20
32187;DHT22;18686;53.084;8.872;2023-07-09T08:06:00;29.90;49.20
32187;DHT22;18686;53.084;8.872;2023-07-09T08:08:29;30.10;48.20
32187;DHT22;18686;53.084;8.872;2023-07-09T08:11:01;30.40;48.40
32187;DHT22;18686;53.084;8.872;2023-07-09T08:13:32;30.70;47.40
32187;DHT22;18686;53.084;8.872;2023-07-09T08:16:01;31.00;46.50
32187;DHT22;18686;53.084;8.872;2023-07-09T08:18:30;31.30;46.90
32187;DHT22;18686;53.084;8.872;2023-07-09T08:21:00;31.60;46.10
32187;DHT22;18686;53.084;8.872;2023-07-09T08:23:28;32.10;45.40
32187;DHT22;18686;53.084;8.872;2023-07-09T08:26:00;32.40;43.40
32187;DHT22;18686;53.084;8.872;2023-07-09T08:28:31;32.50;41.90
32187;DHT22;18686;53.084;8.872;2023-07-09T08:30:59;32.50;42.30
32187;DHT22;18686;53.084;8.872;2023-07-09T08:33:28;32.80;42.30
32187;DHT22;18686;53.084;8.872;2023-07-09T08:35:56;33.10;42.60
32187;DHT22;18686;53.084;8.872;2023-07-09T08:38:26;33.40;41.90
32187;DHT22;18686;53.084;8.872;2023-07-09T08:40:58;33.60;42.10
32187;DHT22;18686;53.084;8.872;2023-07-09T08:43:33;33.60;42.60
32187;DHT22;18686;53.084;8.872;2023-07-09T08:46:09;33.60;41.80
32187;DHT22;18686;53.084;8.872;2023-07-09T08:48:42;33.60;42.20
32187;DHT22;18686;53.084;8.872;2023-07-09T08:51:14;33.60;41.50
32187;DHT22;18686;53.084;8.872;2023-07-09T08:53:49;33.50;40.00
32187;DHT22;18686;53.084;8.872;2023-07-09T08:56:18;33.30;40.20
32187;DHT22;18686;53.084;8.872;2023-07-09T08:58:48;33.10;40.10
32187;DHT22;18686;53.084;8.872;2023-07-09T09:01:19;32.80;40.70
32187;DHT22;18686;53.084;8.872;2023-07-09T09:03:49;32.80;41.20
32187;DHT22;18686;53.084;8.872;2023-07-09T09:06:21;33.00;41.90
32187;DHT22;18686;53.084;8.872;2023-07-09T09:09:02;33.40;41.00
32187;DHT22;18686;53.084;8.872;2023-07-09T09:11:41;33.90;40.90
32187;DHT22;18686;53.084;8.872;2023-07-09T09:14:26;34.00;39.80
32187;DHT22;18686;53.084;8.872;2023-07-09T09:16:56;34.00;38.70
32187;DHT22;18686;53.084;8.872;2023-07-09T09:19:28;34.20;38.80
32187;DHT22;18686;53.084;8.872;2023-07-09T09:22:00;34.50;38.90
32187;DHT22;18686;53.084;8.872;2023-07-09T09:24:36;34.80;38.70
32187;DHT22;18686;53.084;8.872;2023-07-09T09:27:08;34.80;39.50
32187;DHT22;18686;53.084;8.872;2023-07-09T09:29:36;35.20;37.90
32187;DHT22;18686;53.084;8.872;2023-07-09T09:32:16;35.80;37.70
32187;DHT22;18686;53.084;8.872;2023-07-09T09:34:46;36.30;36.90
32187;DHT22;18686;53.084;8.872;2023-07-09T09:37:24;36.80;37.10
32187;DHT22;18686;53.084;8.872;2023-07-09T09:39:55;37.30;35.50
32187;DHT22;18686;53.084;8.872;2023-07-09T09:42:41;37.50;35.80
32187;DHT22;18686;53.084;8.872;2023-07-09T09:45:13;37.80;35.50
32187;DHT22;18686;53.084;8.872;2023-07-09T09:47:43;37.90;34.40
32187;DHT22;18686;53.084;8.872;2023-07-09T09:50:13;38.00;34.30
32187;DHT22;18686;53.084;8.872;2023-07-09T09:52:43;38.30;34.50
32187;DHT22;18686;53.084;8.872;2023-07-09T09:55:19;38.40;34.20
32187;DHT22;18686;53.084;8.872;2023-07-09T09:57:48;38.70;34.10
32187;DHT22;18686;53.084;8.872;2023-07-09T10:00:18;39.10;34.10
32187;DHT22;18686;53.084;8.872;2023-07-09T10:02:46;39.50;34.10
32187;DHT22;18686;53.084;8.872;2023-07-09T10:05:16;39.40;33.10
32187;DHT22;18686;53.084;8.872;2023-07-09T10:07:50;39.60;33.60
32187;DHT22;18686;53.084;8.872;2023-07-09T10:10:25;40.20;33.60
32187;DHT22;18686;53.084;8.872;2023-07-09T10:12:59;40.60;32.70
32187;DHT22;18686;53.084;8.872;2023-07-09T10:15:38;40.80;31.90
32187;DHT22;18686;53.084;8.872;2023-07-09T10:18:16;41.20;32.10
32187;DHT22;18686;53.084;8.872;2023-07-09T10:20:55;41.40;30.80
32187;DHT22;18686;53.084;8.872;2023-07-09T10:23:30;41.90;30.60
32187;DHT22;18686;53.084;8.872;2023-07-09T10:26:07;42.40;30.10
32187;DHT22;18686;53.084;8.872;2023-07-09T10:29:01;42.70;30.00
32187;DHT22;18686;53.084;8.872;2023-07-09T10:31:41;42.60;29.70
32187;DHT22;18686;53.084;8.872;2023-07-09T10:34:21;43.40;29.60
32187;DHT22;18686;53.084;8.872;2023-07-09T10:37:04;43.90;29.40
32187;DHT22;18686;53.084;8.872;2023-07-09T10:39:37;44.60;29.00
32187;DHT22;18686;53.084;8.872;2023-07-09T10:42:14;44.30;28.30
32187;DHT22;18686;53.084;8.872;2023-07-09T10:44:51;44.60;28.50
32187;DHT22;18686;53.084;8.872;2023-07-09T10:47:28;44.70;28.60
32187;DHT22;18686;53.084;8.872;2023-07-09T10:49:57;45.20;28.60
32187;DHT22;18686;53.084;8.872;2023-07-09T10:52:29;45.70;28.20
32187;DHT22;18686;53.084;8.872;2023-07-09T10:55:02;46.30;27.90
32187;DHT22;18686;53.084;8.872;2023-07-09T10:57:40;47.40;28.40
32187;DHT22;18686;53.084;8.872;2023-07-09T11:00:13;48.30;27.50
32187;DHT22;18686;53.084;8.872;2023-07-09T11:02:44;48.80;27.20
32187;DHT22;18686;53.084;8.872;2023-07-09T11:05:12;49.00;26.40
32187;DHT22;18686;53.084;8.872;2023-07-09T11:07:44;49.50;26.20
32187;DHT22;18686;53.084;8.872;2023-07-09T11:10:19;49.80;26.10
32187;DHT22;18686;53.084;8.872;2023-07-09T11:12:55;50.20;25.90
32187;DHT22;18686;53.084;8.872;2023-07-09T11:15:31;50.90;25.30
32187;DHT22;18686;53.084;8.872;2023-07-09T11:18:00;51.50;25.20
32187;DHT22;18686;53.084;8.872;2023-07-09T11:20:34;52.20;25.00
32187;DHT22;18686;53.084;8.872;2023-07-09T11:23:06;53.00;24.80
32187;DHT22;18686;53.084;8.872;2023-07-09T11:25:42;53.40;24.50
32187;DHT22;18686;53.084;8.872;2023-07-09T11:28:12;53.90;24.30
32187;DHT22;18686;53.084;8.872;2023-07-09T11:30:48;54.30;24.10
32187;DHT22;18686;53.084;8.872;2023-07-09T11:33:18;55.00;23.70
32187;DHT22;18686;53.084;8.872;2023-07-09T11:35:53;55.30;24.00
32187;DHT22;18686;53.084;8.872;2023-07-09T11:38:23;55.70;23.80
32187;DHT22;18686;53.084;8.872;2023-07-09T11:40:53;55.60;23.10
32187;DHT22;18686;53.084;8.872;2023-07-09T11:43:33;55.90;23.10
32187;DHT22;18686;53.084;8.872;2023-07-09T11:46:10;55.20;22.40
32187;DHT22;18686;53.084;8.872;2023-07-09T11:48:41;55.20;23.10
32187;DHT22;18686;53.084;8.872;2023-07-09T11:51:15;55.30;22.80
32187;DHT22;18686;53.084;8.872;2023-07-09T11:53:46;55.40;22.60
32187;DHT22;18686;53.084;8.872;2023-07-09T11:56:18;55.20;22.60
32187;DHT22;18686;53.084;8.872;2023-07-09T11:58:53;55.00;22.50
32187;DHT22;18686;53.084;8.872;2023-07-09T12:01:24;54.90;22.40
32187;DHT22;18686;53.084;8.872;2023-07-09T12:03:53;54.70;22.70
32187;DHT22;18686;53.084;8.872;2023-07-09T12:06:27;55.20;22.40
32187;DHT22;18686;53.084;8.872;2023-07-09T12:08:56;54.60;22.40
32187;DHT22;18686;53.084;8.872;2023-07-09T12:11:27;53.70;22.50
32187;DHT22;18686;53.084;8.872;2023-07-09T12:14:02;53.30;22.90
32187;DHT22;18686;53.084;8.872;2023-07-09T12:16:33;52.90;22.80
32187;DHT22;18686;53.084;8.872;2023-07-09T12:19:02;53.10;23.00
32187;DHT22;18686;53.084;8.872;2023-07-09T12:21:33;52.60;22.90
32187;DHT22;18686;53.084;8.872;2023-07-09T12:24:02;52.80;23.20
32187;DHT22;18686;53.084;8.872;2023-07-09T12:26:31;53.10;23.00
32187;DHT22;18686;53.084;8.872;2023-07-09T12:28:59;53.00;22.90
32187;DHT22;18686;53.084;8.872;2023-07-09T12:31:30;52.70;23.20
32187;DHT22;18686;53.084;8.872;2023-07-09T12:36:28;53.70;22.70
32187;DHT22;18686;53.084;8.872;2023-07-09T12:38:59;53.60;23.00
32187;DHT22;18686;53.084;8.872;2023-07-09T12:41:38;54.00;23.10
32187;DHT22;18686;53.084;8.872;2023-07-09T12:49:21;54.20;22.30
32187;DHT22;18686;53.084;8.872;2023-07-09T12:54:20;53.40;22.40
32187;DHT22;18686;53.084;8.872;2023-07-09T12:59:22;53.30;22.90
32187;DHT22;18686;53.084;8.872;2023-07-09T13:04:29;54.10;22.50
32187;DHT22;18686;53.084;8.872;2023-07-09T13:06:57;53.90;22.80
32187;DHT22;18686;53.084;8.872;2023-07-09T13:11:57;54.80;22.40
32187;DHT22;18686;53.084;8.872;2023-07-09T13:14:27;55.00;22.60
32187;DHT22;18686;53.084;8.872;2023-07-09T13:17:04;54.70;22.50
32187;DHT22;18686;53.084;8.872;2023-07-09T13:19:33;54.50;22.80
32187;DHT22;18686;53.084;8.872;2023-07-09T13:24:30;54.50;22.60
32187;DHT22;18686;53.084;8.872;2023-07-09T13:27:00;53.30;22.90
32187;DHT22;18686;53.084;8.872;2023-07-09T13:29:31;53.40;23.00
32187;DHT22;18686;53.084;8.872;2023-07-09T13:31:59;53.70;23.40
32187;DHT22;18686;53.084;8.872;2023-07-09T13:34:31;54.00;23.20
32187;DHT22;18686;53.084;8.872;2023-07-09T13:37:00;53.30;22.90
32187;DHT22;18686;53.084;8.872;2023-07-09T13:39:28;53.50;22.90
32187;DHT22;18686;53.084;8.872;2023-07-09T13:41:56;53.00;23.00
32187;DHT22;18686;53.084;8.872;2023-07-09T13:44:27;52.90;22.80
32187;DHT22;18686;53.084;8.872;2023-07-09T13:46:55;52.90;22.80
32187;DHT22;18686;53.084;8.872;2023-07-09T13:49:26;52.70;22.40
32187;DHT22;18686;53.084;8.872;2023-07-09T13:51:57;52.50;22.50
32187;DHT22;18686;53.084;8.872;2023-07-09T13:54:27;53.00;22.70
32187;DHT22;18686;53.084;8.872;2023-07-09T13:56:58;53.70;22.40
32187;DHT22;18686;53.084;8.872;2023-07-09T13:59:28;53.30;22.30
32187;DHT22;18686;53.084;8.872;2023-07-09T14:01:58;53.50;22.40
32187;DHT22;18686;53.084;8.872;2023-07-09T14:04:27;53.30;22.50
32187;DHT22;18686;53.084;8.872;2023-07-09T14:06:57;53.30;22.40
32187;DHT22;18686;53.084;8.872;2023-07-09T14:09:25;53.30;23.00
32187;DHT22;18686;53.084;8.872;2023-07-09T14:11:53;53.20;22.40
32187;DHT22;18686;53.084;8.872;2023-07-09T14:14:24;53.60;22.60
32187;DHT22;18686;53.084;8.872;2023-07-09T14:16:52;54.00;22.50
32187;DHT22;18686;53.084;8.872;2023-07-09T14:19:22;54.00;22.40
32187;DHT22;18686;53.084;8.872;2023-07-09T14:21:51;53.80;22.50
32187;DHT22;18686;53.084;8.872;2023-07-09T14:24:24;53.40;23.20
32187;DHT22;18686;53.084;8.872;2023-07-09T14:26:54;52.20;22.70
32187;DHT22;18686;53.084;8.872;2023-07-09T14:29:24;51.40;23.20
32187;DHT22;18686;53.084;8.872;2023-07-09T14:31:53;50.30;23.60
32187;DHT22;18686;53.084;8.872;2023-07-09T14:34:23;49.60;24.00
32187;DHT22;18686;53.084;8.872;2023-07-09T14:36:55;48.90;23.90
32187;DHT22;18686;53.084;8.872;2023-07-09T14:39:26;48.20;24.50
32187;DHT22;18686;53.084;8.872;2023-07-09T14:41:54;47.00;24.90
32187;DHT22;18686;53.084;8.872;2023-07-09T14:44:25;45.50;25.60
32187;DHT22;18686;53.084;8.872;2023-07-09T14:49:23;43.40;26.30
32187;DHT22;18686;53.084;8.872;2023-07-09T14:51:52;42.40;26.90
32187;DHT22;18686;53.084;8.872;2023-07-09T14:54:22;41.40;27.50
32187;DHT22;18686;53.084;8.872;2023-07-09T14:56:56;40.70;27.70
32187;DHT22;18686;53.084;8.872;2023-07-09T14:59:25;40.10;28.00
32187;DHT22;18686;53.084;8.872;2023-07-09T15:01:53;39.60;28.50
32187;DHT22;18686;53.084;8.872;2023-07-09T15:04:30;39.30;28.90
32187;DHT22;18686;53.084;8.872;2023-07-09T15:07:00;39.00;29.50
32187;DHT22;18686;53.084;8.872;2023-07-09T15:09:28;38.70;29.50
32187;DHT22;18686;53.084;8.872;2023-07-09T15:11:59;38.50;29.90
32187;DHT22;18686;53.084;8.872;2023-07-09T15:14:28;38.00;30.20
32187;DHT22;18686;53.084;8.872;2023-07-09T15:16:56;37.50;30.60
32187;DHT22;18686;53.084;8.872;2023-07-09T15:19:27;37.20;30.80
32187;DHT22;18686;53.084;8.872;2023-07-09T15:21:56;37.00;30.80
32187;DHT22;18686;53.084;8.872;2023-07-09T15:24:27;36.80;31.60
32187;DHT22;18686;53.084;8.872;2023-07-09T15:26:58;36.70;32.10
32187;DHT22;18686;53.084;8.872;2023-07-09T15:29:27;36.50;32.20
32187;DHT22;18686;53.084;8.872;2023-07-09T15:31:55;36.20;32.40
32187;DHT22;18686;53.084;8.872;2023-07-09T15:34:24;36.00;31.90
32187;DHT22;18686;53.084;8.872;2023-07-09T15:36:52;35.90;33.20
32187;DHT22;18686;53.084;8.872;2023-07-09T15:39:21;35.70;32.00
32187;DHT22;18686;53.084;8.872;2023-07-09T15:41:49;35.60;33.40
32187;DHT22;18686;53.084;8.872;2023-07-09T17:18:39;30.50;40.90
32187;DHT22;18686;53.084;8.872;2023-07-09T17:21:08;30.30;41.80
32187;DHT22;18686;53.084;8.872;2023-07-09T17:23:36;30.20;41.80
32187;DHT22;18686;53.084;8.872;2023-07-09T17:26:22;30.10;42.20
32187;DHT22;18686;53.084;8.872;2023-07-09T17:28:51;29.90;43.10
32187;DHT22;18686;53.084;8.872;2023-07-09T17:31:19;29.80;43.70
32187;DHT22;18686;53.084;8.872;2023-07-09T17:33:49;29.60;44.20
32187;DHT22;18686;53.084;8.872;2023-07-09T17:36:17;29.50;44.70
32187;DHT22;18686;53.084;8.872;2023-07-09T17:38:51;29.40;45.00
32187;DHT22;18686;53.084;8.872;2023-07-09T17:41:19;29.20;45.40
32187;DHT22;18686;53.084;8.872;2023-07-09T17:43:48;29.10;46.10
32187;DHT22;18686;53.084;8.872;2023-07-09T17:46:16;29.00;46.20
32187;DHT22;18686;53.084;8.872;2023-07-09T17:51:54;28.80;47.10